LIL weather

Lille-Lesquin Airport
Lille/Lesquin, Hauts-de-France, France

Public forecast

Using degrees Celsius for public forecast. Weather courtesy of forecast.io.

Current aviation weather report (METAR) for Lille-Lesquin Airport

Retrieved 2020/06/02 10:30 UTC (25 minutes ago):

LFQQ 021030Z AUTO 02005KT 290V100 CAVOK 26/09 Q1017 NOSIG

Aviation forecast (TAF) for Lille-Lesquin Airport

Retrieved 2020/06/02 06:21 UTC (5 hours ago):

TAF LFQQ 020500Z 0206/0312 33006KT CAVOK